Time;durP1;ratioP1;P1;durP2;ratioP2;P2;SDS_P1;SDS_P2;PMS_P1;PMS_P2;Temp;Humidity;BMP_temperature;BMP_pressure;BME280_temperature;BME280_humidity;BME280_pressure;Samples;Min_cycle;Max_cycle;Signal;HPM_P1;HPM_P2
2021/12/03 00:02:04;;;;;;;;;31.00;25.25;;;;;2.55;72.99;101225.03;4961045;28;45463;-67
2021/12/03 00:04:30;;;;;;;;;34.00;29.00;;;;;2.57;72.58;101230.31;4958441;28;45624;-67
2021/12/03 00:06:55;;;;;;;;;31.75;29.75;;;;;2.55;72.97;101224.09;4971364;28;45504;-67
2021/12/03 00:09:21;;;;;;;;;43.75;32.50;;;;;2.57;72.85;101230.31;4963671;28;45402;-67
2021/12/03 00:11:47;;;;;;;;;33.50;28.25;;;;;2.57;72.88;101236.44;4956104;28;46413;-67
2021/12/03 00:14:12;;;;;;;;;34.25;30.75;;;;;2.47;73.09;101223.63;4958209;28;46546;-67
2021/12/03 00:16:37;;;;;;;;;33.25;28.25;;;;;2.55;72.77;101247.59;4958404;28;45328;-67
2021/12/03 00:19:03;;;;;;;;;35.50;30.00;;;;;2.55;72.42;101244.97;4959415;28;45310;-67
2021/12/03 00:21:29;;;;;;;;;28.50;26.25;;;;;2.52;73.60;101231.72;4956911;28;45444;-67
2021/12/03 00:23:54;;;;;;;;;28.25;26.50;;;;;2.51;73.16;101224.72;4957822;28;45307;-67
2021/12/03 00:26:20;;;;;;;;;36.25;29.00;;;;;2.46;72.99;101222.75;4958715;28;45237;-67
2021/12/03 00:28:46;;;;;;;;;24.50;21.75;;;;;2.53;72.48;101237.06;4961729;28;45202;-67
2021/12/03 00:31:13;;;;;;;;;31.25;26.25;;;;;2.49;73.31;101226.31;4957907;28;45913;-67
2021/12/03 00:33:39;;;;;;;;;29.50;26.75;;;;;2.49;73.43;101227.22;4961852;28;45443;-67
2021/12/03 00:36:08;;;;;;;;;36.25;29.00;;;;;2.44;72.88;101213.91;4958500;28;45392;-67
2021/12/03 00:38:42;;;;;;;;;30.00;25.00;;;;;2.46;73.10;101224.41;4965433;28;45439;-67
2021/12/03 00:41:11;;;;;;;;;28.75;28.00;;;;;2.46;73.12;101227.03;4958677;28;45629;-67
2021/12/03 00:43:41;;;;;;;;;27.00;26.50;;;;;2.49;73.52;101236.75;4957550;28;46442;-67
2021/12/03 00:46:09;;;;;;;;;25.75;25.50;;;;;2.47;73.07;101234.06;4969194;28;45469;-67
2021/12/03 00:48:34;;;;;;;;;37.25;25.00;;;;;2.47;72.92;101236.69;4961984;28;45391;-67
2021/12/03 00:51:00;;;;;;;;;30.25;28.75;;;;;2.53;73.73;101244.88;4957851;28;45450;-67
2021/12/03 00:53:25;;;;;;;;;33.00;30.50;;;;;2.54;73.80;101246.69;4968801;28;47413;-67
2021/12/03 00:55:51;;;;;;;;;41.00;34.25;;;;;2.51;73.48;101241.28;4958064;28;46089;-67
2021/12/03 00:58:16;;;;;;;;;38.75;29.50;;;;;2.46;73.58;101238.41;4974987;28;45342;-67
2021/12/03 01:00:41;;;;;;;;;37.25;27.75;;;;;2.50;73.46;101243.81;4973292;28;45875;-67
2021/12/03 01:03:07;;;;;;;;;32.75;28.00;;;;;2.49;73.28;101248.09;4960193;28;45541;-67
2021/12/03 01:05:33;;;;;;;;;29.50;26.75;;;;;2.42;73.82;101231.16;4957790;28;45322;-67
2021/12/03 01:07:59;;;;;;;;;33.50;28.50;;;;;2.50;72.86;101244.69;4968511;28;44760;-67
2021/12/03 01:10:25;;;;;;;;;28.25;26.50;;;;;2.50;73.99;101246.41;4957644;28;45369;-67
2021/12/03 01:12:51;;;;;;;;;28.75;25.75;;;;;2.53;74.01;101250.09;4957518;28;45455;-67
2021/12/03 01:15:20;;;;;;;;;25.75;25.25;;;;;2.56;73.66;101252.00;4957613;28;45313;-67
2021/12/03 01:17:45;;;;;;;;;30.50;29.00;;;;;2.56;73.48;101257.22;4958945;28;45410;-67
2021/12/03 01:20:13;;;;;;;;;45.00;34.75;;;;;2.60;73.66;101265.34;4957516;28;45237;-67
2021/12/03 01:22:39;;;;;;;;;44.33;40.00;;;;;2.59;73.76;101266.16;4965397;28;47563;-67
2021/12/03 01:25:07;;;;;;;;;41.25;32.00;;;;;2.62;73.62;101265.44;4957273;28;45284;-67
2021/12/03 01:27:33;;;;;;;;;44.75;37.25;;;;;2.56;73.71;101263.34;4961665;28;45420;-67
2021/12/03 01:29:58;;;;;;;;;45.00;36.50;;;;;2.63;73.42;101268.16;4957360;28;45398;-67
2021/12/03 01:32:24;;;;;;;;;53.50;42.50;;;;;2.63;73.85;101264.63;4957858;28;45682;-67
2021/12/03 01:34:49;;;;;;;;;38.50;35.75;;;;;2.63;73.34;101260.34;4957454;28;45398;-67
2021/12/03 01:37:14;;;;;;;;;43.75;37.25;;;;;2.68;73.70;101271.94;4957744;28;45382;-67
2021/12/03 01:39:40;;;;;;;;;33.25;27.75;;;;;2.62;73.30;101258.50;4962783;28;45453;-67
2021/12/03 01:42:05;;;;;;;;;34.75;31.25;;;;;2.73;72.51;101269.63;4965241;28;45397;-67
2021/12/03 01:44:31;;;;;;;;;39.00;33.50;;;;;2.72;73.76;101265.22;4957324;28;45387;-67
2021/12/03 01:46:56;;;;;;;;;32.25;25.50;;;;;2.77;73.67;101265.50;4974654;28;45411;-67
2021/12/03 01:49:23;;;;;;;;;26.00;26.00;;;;;2.73;73.52;101263.53;4956674;28;45388;-67
2021/12/03 01:51:49;;;;;;;;;36.25;29.00;;;;;2.81;73.26;101285.78;4969084;28;47352;-67
2021/12/03 01:54:14;;;;;;;;;35.75;28.50;;;;;2.79;73.85;101280.47;4956639;28;45341;-67
2021/12/03 01:56:40;;;;;;;;;28.00;25.25;;;;;2.79;73.32;101269.13;4959754;28;45417;-67
2021/12/03 01:59:07;;;;;;;;;28.50;25.50;;;;;2.81;73.71;101272.75;4956873;28;45528;-67
2021/12/03 02:01:33;;;;;;;;;32.50;29.00;;;;;2.88;73.87;101280.13;4957747;28;47977;-67
2021/12/03 02:04:00;;;;;;;;;34.00;25.00;;;;;2.81;73.38;101265.81;4957203;28;45308;-67
2021/12/03 02:06:27;;;;;;;;;28.25;25.00;;;;;2.92;73.56;101274.31;4966012;28;45263;-67
2021/12/03 02:08:53;;;;;;;;;30.00;24.25;;;;;2.88;73.89;101275.81;4965718;28;45529;-67
2021/12/03 02:11:19;;;;;;;;;28.25;25.25;;;;;2.92;73.83;101277.81;4956699;28;45695;-67
2021/12/03 02:13:46;;;;;;;;;23.25;20.75;;;;;2.95;73.61;101278.81;4939419;28;45507;-67
2021/12/03 02:16:12;;;;;;;;;28.50;21.75;;;;;2.95;73.56;101264.06;4957101;28;45339;-67
2021/12/03 02:18:39;;;;;;;;;22.50;21.00;;;;;2.94;73.06;101275.31;4957980;28;45508;-67
2021/12/03 02:21:06;;;;;;;;;26.00;22.00;;;;;2.97;73.72;101275.50;4955553;28;47244;-67
2021/12/03 02:23:32;;;;;;;;;26.25;22.50;;;;;2.98;73.88;101279.03;4960456;28;45474;-67
2021/12/03 02:25:58;;;;;;;;;21.25;17.25;;;;;3.00;73.20;101282.63;4957061;28;45324;-67
2021/12/03 02:28:26;;;;;;;;;27.25;19.50;;;;;2.97;73.36;101274.59;4960493;28;45418;-67
2021/12/03 02:30:53;;;;;;;;;21.25;19.75;;;;;2.97;73.40;101270.28;4955995;28;46432;-68
2021/12/03 02:33:19;;;;;;;;;20.50;20.00;;;;;3.02;73.55;101273.16;4957294;28;45316;-67
2021/12/03 02:35:45;;;;;;;;;22.00;19.00;;;;;2.97;73.62;101265.06;4958908;28;45541;-67
2021/12/03 02:38:13;;;;;;;;;22.75;21.25;;;;;2.82;73.83;101238.00;4960264;28;45650;-67
2021/12/03 02:40:39;;;;;;;;;23.75;15.25;;;;;3.04;74.01;101274.16;4972678;28;46561;-67
2021/12/03 02:43:05;;;;;;;;;23.50;19.25;;;;;2.96;73.90;101257.13;4960134;28;45356;-67
2021/12/03 02:45:31;;;;;;;;;18.25;18.25;;;;;2.87;74.29;101237.47;4966152;28;45491;-67
2021/12/03 02:47:59;;;;;;;;;25.25;21.00;;;;;3.04;74.19;101267.22;4968618;27;45332;-67
2021/12/03 02:50:25;;;;;;;;;27.75;18.00;;;;;3.09;73.52;101260.59;4965406;28;48088;-67
2021/12/03 02:52:50;;;;;;;;;18.50;18.00;;;;;3.11;74.13;101261.59;4963331;28;45430;-67
2021/12/03 02:55:16;;;;;;;;;11.75;10.50;;;;;3.08;72.72;101234.38;4959483;28;45577;-67
2021/12/03 02:57:42;;;;;;;;;16.25;14.50;;;;;3.13;73.18;101238.16;4961778;28;45375;-67
2021/12/03 03:00:11;;;;;;;;;13.50;10.75;;;;;3.21;73.16;101239.53;4959130;28;46387;-67
2021/12/03 03:02:36;;;;;;;;;17.50;13.25;;;;;3.11;73.53;101209.34;4962059;28;45494;-67
2021/12/03 03:05:02;;;;;;;;;15.50;11.00;;;;;3.28;73.86;101225.16;4959203;28;45289;-67
2021/12/03 03:07:30;;;;;;;;;14.00;12.75;;;;;3.27;73.09;101223.31;4959634;28;45494;-67
2021/12/03 03:09:56;;;;;;;;;14.25;12.75;;;;;3.31;73.20;101228.84;4965221;28;45673;-67
2021/12/03 03:12:21;;;;;;;;;13.50;9.25;;;;;3.30;72.41;101220.91;4959079;28;45417;-67
2021/12/03 03:14:51;;;;;;;;;18.50;10.50;;;;;3.37;72.10;101220.47;4957940;28;45280;-67
2021/12/03 03:17:18;;;;;;;;;10.25;10.00;;;;;3.36;72.30;101213.41;4963368;28;45228;-67
2021/12/03 03:19:43;;;;;;;;;14.25;13.50;;;;;3.28;72.60;101193.81;4959322;28;45520;-67
2021/12/03 03:22:09;;;;;;;;;17.25;13.50;;;;;3.39;72.78;101210.09;4963197;28;45411;-67
2021/12/03 03:24:35;;;;;;;;;17.75;10.75;;;;;3.27;73.15;101181.53;4958763;28;45332;-67
2021/12/03 03:27:02;;;;;;;;;11.50;10.00;;;;;3.41;72.66;101204.16;4962927;28;45371;-67
2021/12/03 03:29:27;;;;;;;;;13.00;11.75;;;;;3.48;72.15;101218.50;4958723;28;45550;-67
2021/12/03 03:31:53;;;;;;;;;10.00;10.00;;;;;3.51;72.24;101224.81;4971198;28;45456;-67
2021/12/03 03:34:18;;;;;;;;;16.25;10.25;;;;;3.52;72.19;101216.13;4966353;28;45383;-67
2021/12/03 03:36:44;;;;;;;;;12.00;12.00;;;;;3.51;71.95;101216.06;4969974;28;45420;-67
2021/12/03 03:39:13;;;;;;;;;10.00;5.50;;;;;3.53;71.93;101223.19;4959677;28;46308;-67
2021/12/03 03:41:40;;;;;;;;;17.50;11.25;;;;;3.49;71.80;101213.34;4970824;28;45990;-67
2021/12/03 03:44:06;;;;;;;;;14.25;11.00;;;;;3.51;71.95;101209.13;4958838;28;45445;-67
2021/12/03 03:46:32;;;;;;;;;14.75;12.75;;;;;3.58;72.06;101221.75;4972785;28;45327;-67
2021/12/03 03:48:57;;;;;;;;;14.00;9.00;;;;;3.59;71.82;101225.25;4960697;28;45355;-67
2021/12/03 03:51:24;;;;;;;;;13.50;10.25;;;;;3.56;71.81;101220.75;4959099;28;45320;-67
2021/12/03 03:53:49;;;;;;;;;15.25;11.50;;;;;3.61;72.07;101225.34;4970600;28;45272;-67
2021/12/03 03:56:14;;;;;;;;;13.75;10.25;;;;;3.63;71.81;101221.09;4958745;28;45324;-67
2021/12/03 03:58:41;;;;;;;;;14.00;13.00;;;;;3.62;71.45;101217.59;4972868;28;46200;-67
2021/12/03 04:01:08;;;;;;;;;9.75;9.75;;;;;3.62;71.34;101212.38;4969025;28;45262;-67
2021/12/03 04:03:34;;;;;;;;;15.50;11.00;;;;;3.60;71.89;101214.00;4961168;28;46420;-67
2021/12/03 04:06:00;;;;;;;;;12.25;10.25;;;;;3.55;71.73;101203.25;4958491;28;45396;-67
2021/12/03 04:08:29;;;;;;;;;9.75;9.25;;;;;3.58;71.51;101218.22;4967727;28;46185;-67
2021/12/03 04:10:58;;;;;;;;;12.75;10.00;;;;;3.59;71.59;101212.19;4958625;28;45414;-67
2021/12/03 04:13:25;;;;;;;;;10.50;9.50;;;;;3.59;71.74;101204.34;4960637;28;45430;-67
2021/12/03 04:15:50;;;;;;;;;12.75;9.75;;;;;3.62;71.90;101195.78;4958175;28;45400;-67
2021/12/03 04:18:16;;;;;;;;;14.50;10.50;;;;;3.58;71.14;101182.56;4959692;28;45474;-67
2021/12/03 04:20:42;;;;;;;;;12.75;9.75;;;;;3.52;71.41;101174.31;4958188;28;45264;-67
2021/12/03 04:23:08;;;;;;;;;15.25;10.75;;;;;3.58;71.51;101185.16;4962379;28;45474;-67
2021/12/03 04:25:34;;;;;;;;;12.25;10.25;;;;;3.63;71.20;101202.81;4958282;28;45552;-67
2021/12/03 04:28:01;;;;;;;;;10.00;8.50;;;;;3.63;71.06;101214.16;4958641;28;46482;-67
2021/12/03 04:30:28;;;;;;;;;10.75;10.00;;;;;3.64;71.34;101209.84;4958299;28;45304;-67
2021/12/03 04:32:56;;;;;;;;;10.50;8.75;;;;;3.55;71.28;101189.28;4958915;28;46301;-67
2021/12/03 04:35:23;;;;;;;;;9.75;9.00;;;;;3.58;71.11;101181.63;4958141;28;45498;-67
2021/12/03 04:37:49;;;;;;;;;12.00;9.75;;;;;3.60;71.57;101180.00;4958139;28;45544;-67
2021/12/03 04:40:16;;;;;;;;;11.50;10.00;;;;;3.64;71.56;101194.16;4968019;28;45327;-67
2021/12/03 04:42:42;;;;;;;;;14.75;10.00;;;;;3.60;70.97;101185.25;4961675;28;45240;-67
2021/12/03 04:45:11;;;;;;;;;13.25;9.25;;;;;3.65;71.23;101194.25;4958105;28;45360;-67
2021/12/03 04:47:37;;;;;;;;;10.25;9.75;;;;;3.61;71.66;101184.41;4976175;28;46639;-67
2021/12/03 04:50:07;;;;;;;;;13.25;10.25;;;;;3.59;71.76;101170.38;4957979;28;45387;-67
2021/12/03 04:52:32;;;;;;;;;25.75;18.75;;;;;3.59;71.20;101184.34;4962001;28;45405;-67
2021/12/03 04:54:58;;;;;;;;;11.50;11.00;;;;;3.61;71.14;101183.50;4957864;28;45536;-67
2021/12/03 04:57:23;;;;;;;;;13.75;9.75;;;;;3.65;71.33;101190.75;4960080;28;45317;-67
2021/12/03 04:59:49;;;;;;;;;9.75;7.50;;;;;3.60;70.88;101182.63;4958129;28;45576;-67
2021/12/03 05:02:14;;;;;;;;;9.00;9.00;;;;;3.63;70.70;101192.34;4960490;28;45926;-67
2021/12/03 05:04:40;;;;;;;;;10.00;9.00;;;;;3.59;71.24;101181.72;4957796;28;45529;-67
2021/12/03 05:09:37;;;;;;;;;10.75;9.00;;;;;3.64;71.17;101173.25;4967881;28;45337;-67
2021/12/03 05:12:04;;;;;;;;;9.75;9.50;;;;;3.63;70.83;101167.13;4957978;28;45298;-67
2021/12/03 05:14:29;;;;;;;;;12.00;9.50;;;;;3.60;71.24;101153.88;4957665;28;45366;-67
2021/12/03 05:16:55;;;;;;;;;9.00;9.00;;;;;3.57;71.10;101145.84;4957784;28;45504;-67
2021/12/03 05:19:21;;;;;;;;;13.50;9.75;;;;;3.55;70.75;101137.91;4957519;28;45247;-67
2021/12/03 05:21:47;;;;;;;;;9.75;7.50;;;;;3.58;70.84;101143.34;4961702;28;45434;-67
2021/12/03 05:24:13;;;;;;;;;7.50;5.00;;;;;3.66;70.58;101150.72;4957545;28;45521;-67
2021/12/03 05:26:39;;;;;;;;;8.00;8.00;;;;;3.54;71.03;101127.38;4958286;28;45354;-67
2021/12/03 05:29:06;;;;;;;;;9.00;6.25;;;;;3.66;70.87;101142.88;4964063;28;45371;-67
2021/12/03 05:31:33;;;;;;;;;10.25;8.00;;;;;3.69;70.84;101153.50;4960054;28;45540;-67
2021/12/03 05:33:58;;;;;;;;;6.25;5.25;;;;;3.69;70.98;101145.66;4957412;28;45353;-67
2021/12/03 05:36:24;;;;;;;;;9.75;9.00;;;;;3.70;70.99;101143.16;4957983;28;45368;-67
2021/12/03 05:38:50;;;;;;;;;9.25;8.00;;;;;3.70;70.75;101137.91;4956950;28;45376;-66
2021/12/03 05:41:16;;;;;;;;;7.50;6.00;;;;;3.74;70.90;101138.97;4968381;28;45645;-66
2021/12/03 05:43:41;;;;;;;;;6.75;6.75;;;;;3.76;71.48;101147.81;4961228;28;45464;-66
2021/12/03 05:46:07;;;;;;;;;7.00;7.00;;;;;3.77;70.90;101144.38;4972082;28;45429;-66
2021/12/03 05:48:32;;;;;;;;;7.00;5.75;;;;;3.75;71.16;101130.31;4958872;28;45344;-67
2021/12/03 05:50:58;;;;;;;;;6.25;6.00;;;;;3.74;70.93;101126.81;4957650;28;45556;-67
2021/12/03 05:53:23;;;;;;;;;6.00;5.00;;;;;3.84;70.77;101130.84;4959165;28;45543;-66
2021/12/03 05:55:49;;;;;;;;;9.00;6.75;;;;;3.84;70.79;101114.25;4956970;28;45713;-66
2021/12/03 05:58:16;;;;;;;;;8.50;5.50;;;;;3.84;70.33;101106.41;4960426;28;45439;-66
2021/12/03 06:00:42;;;;;;;;;10.00;6.25;;;;;3.91;70.01;101104.22;4957184;28;45337;-67
2021/12/03 06:03:08;;;;;;;;;6.00;5.00;;;;;3.90;70.32;101091.97;4959667;28;45358;-66
2021/12/03 06:05:36;;;;;;;;;9.25;6.25;;;;;3.97;70.42;101099.31;4956722;28;46615;-67
2021/12/03 06:08:02;;;;;;;;;17.50;14.75;;;;;3.95;70.13;101082.66;4967254;28;45261;-66
2021/12/03 06:10:28;;;;;;;;;6.00;6.00;;;;;3.99;70.04;101096.81;4955166;28;45453;-67
2021/12/03 06:12:54;;;;;;;;;6.00;6.00;;;;;4.06;70.21;101098.94;4956909;28;45391;-67
2021/12/03 06:15:19;;;;;;;;;5.00;5.00;;;;;3.90;70.01;101070.16;4965897;28;48466;-67
2021/12/03 06:17:45;;;;;;;;;4.50;4.50;;;;;4.10;69.19;101108.75;4965268;28;46109;-67
2021/12/03 06:20:12;;;;;;;;;6.75;5.00;;;;;4.14;69.89;101108.09;4961718;28;45415;-67
2021/12/03 06:22:39;;;;;;;;;4.50;4.50;;;;;3.96;69.45;101066.16;4965419;28;45403;-67
2021/12/03 06:25:06;;;;;;;;;3.00;3.00;;;;;4.19;69.43;101104.03;4959376;28;46234;-67
2021/12/03 06:27:32;;;;;;;;;5.25;4.50;;;;;4.17;69.28;101099.53;4964811;28;45561;-67
2021/12/03 06:29:58;;;;;;;;;5.00;4.50;;;;;4.17;69.60;101103.06;4960088;28;45211;-67
2021/12/03 06:32:24;;;;;;;;;2.50;1.50;;;;;4.18;68.60;101112.69;4968440;28;45477;-67
2021/12/03 06:34:50;;;;;;;;;6.25;3.00;;;;;4.20;69.62;101102.31;4957119;28;45611;-67
2021/12/03 06:37:15;;;;;;;;;8.00;6.50;;;;;4.21;69.12;101088.44;4962257;28;45387;-66
2021/12/03 06:39:41;;;;;;;;;5.50;5.25;;;;;4.25;69.48;101103.47;4962302;28;45433;-66
2021/12/03 06:42:06;;;;;;;;;7.25;2.25;;;;;4.26;68.60;101115.75;4956806;28;46961;-67
2021/12/03 06:44:33;;;;;;;;;3.00;3.00;;;;;4.28;68.89;101114.09;4955657;28;45336;-66
2021/12/03 06:47:00;;;;;;;;;6.75;5.00;;;;;4.27;69.11;101107.06;4983549;28;45085;-67
2021/12/03 06:49:28;;;;;;;;;5.75;3.50;;;;;4.32;68.85;101103.00;4964230;28;45438;-67
2021/12/03 06:51:59;;;;;;;;;5.00;3.00;;;;;4.32;68.98;101110.84;4958256;28;45517;-67
2021/12/03 06:54:26;;;;;;;;;6.75;3.00;;;;;4.29;68.97;101097.59;4956728;28;46158;-67
2021/12/03 06:56:52;;;;;;;;;5.00;2.25;;;;;4.31;69.08;101105.50;4957875;28;45767;-67
2021/12/03 06:59:23;;;;;;;;;4.50;3.00;;;;;4.34;68.64;101106.59;4961631;28;45482;-67
2021/12/03 07:01:50;;;;;;;;;6.50;5.00;;;;;4.32;67.98;101102.09;4958297;28;45470;-68
2021/12/03 07:04:15;;;;;;;;;2.75;2.75;;;;;4.34;68.53;101101.38;4963968;28;48008;-67
2021/12/03 07:06:41;;;;;;;;;5.25;5.00;;;;;4.32;68.48;101092.53;4958932;28;45173;-67
2021/12/03 07:09:07;;;;;;;;;5.00;3.00;;;;;4.35;68.89;101100.53;4977673;28;45268;-67
2021/12/03 07:11:33;;;;;;;;;5.25;4.50;;;;;4.36;68.25;101096.19;4957009;28;45455;-67
2021/12/03 07:13:59;;;;;;;;;5.00;2.00;;;;;4.35;68.25;101083.94;4955949;28;45437;-67
2021/12/03 07:16:25;;;;;;;;;3.00;3.00;;;;;4.38;68.86;101091.97;4968550;28;45289;-67
2021/12/03 07:18:50;;;;;;;;;3.00;3.00;;;;;4.35;68.26;101081.31;4960127;28;45452;-67
2021/12/03 07:21:15;;;;;;;;;2.25;2.25;;;;;4.39;68.31;101081.56;4960212;28;45320;-67
2021/12/03 07:23:41;;;;;;;;;5.25;3.00;;;;;4.33;67.73;101068.16;4968158;28;45335;-67
2021/12/03 07:26:07;;;;;;;;;8.25;6.75;;;;;4.38;68.23;101074.53;4961472;28;45921;-67
2021/12/03 07:28:33;;;;;;;;;4.50;2.75;;;;;4.42;68.49;101078.19;4968948;28;45399;-67
2021/12/03 07:30:59;;;;;;;;;7.50;4.00;;;;;4.33;68.15;101075.09;4959471;28;45577;-68
2021/12/03 07:33:25;;;;;;;;;1.75;1.75;;;;;4.42;68.21;101084.31;4970124;28;46395;-68
2021/12/03 07:35:51;;;;;;;;;5.00;3.00;;;;;4.41;68.33;101072.06;4958655;28;45173;-68
2021/12/03 07:38:17;;;;;;;;;3.00;3.00;;;;;4.41;68.30;101082.53;4966686;28;45572;-68
2021/12/03 07:40:48;;;;;;;;;4.00;2.75;;;;;4.45;67.91;101087.16;4961342;28;46923;-68
2021/12/03 07:43:16;;;;;;;;;1.25;1.25;;;;;4.43;67.88;101075.69;4964368;28;45695;-67
2021/12/03 07:45:41;;;;;;;;;5.50;4.50;;;;;4.42;68.03;101073.84;4975606;28;45336;-66
2021/12/03 07:48:07;;;;;;;;;2.50;2.25;;;;;4.48;67.79;101087.31;4970318;27;45221;-66
2021/12/03 07:50:35;;;;;;;;;2.00;2.00;;;;;4.51;67.77;101080.41;4959376;28;45427;-66
2021/12/03 07:53:01;;;;;;;;;2.25;2.25;;;;;4.48;67.58;101081.13;4965392;28;45436;-66
2021/12/03 07:55:26;;;;;;;;;3.00;3.00;;;;;4.44;67.58;101067.00;4959504;28;45496;-66
2021/12/03 07:57:52;;;;;;;;;3.50;3.00;;;;;4.56;67.64;101081.56;4961562;28;45485;-66
2021/12/03 08:00:18;;;;;;;;;3.50;2.00;;;;;4.60;67.57;101086.16;4959247;28;45452;-66
2021/12/03 08:02:44;;;;;;;;;1.50;1.50;;;;;4.57;67.44;101076.41;4960925;28;46573;-66
2021/12/03 08:05:09;;;;;;;;;2.25;2.00;;;;;4.59;67.27;101074.75;4957524;28;45257;-67
2021/12/03 08:07:35;;;;;;;;;1.50;1.25;;;;;4.64;66.74;101082.88;4965080;28;45200;-68
2021/12/03 08:10:01;;;;;;;;;1.25;1.25;;;;;4.66;66.86;101084.75;4958805;28;45277;-67
2021/12/03 08:12:27;;;;;;;;;1.75;1.75;;;;;4.68;66.61;101072.63;4958397;28;45661;-67
2021/12/03 08:14:52;;;;;;;;;3.25;1.75;;;;;4.69;66.67;101073.53;4958497;28;45218;-67
2021/12/03 08:17:17;;;;;;;;;1.00;1.00;;;;;4.63;66.48;101057.50;4959473;28;45336;-67
2021/12/03 08:19:42;;;;;;;;;3.00;3.00;;;;;4.75;66.96;101066.00;4965126;28;46968;-67
2021/12/03 08:22:08;;;;;;;;;1.00;1.00;;;;;4.76;66.53;101061.66;4962148;28;45274;-67
2021/12/03 08:24:33;;;;;;;;;3.00;3.00;;;;;4.74;66.22;101066.81;4958024;28;45289;-67
2021/12/03 08:27:00;;;;;;;;;1.50;1.50;;;;;4.78;65.78;101070.50;4960599;28;45493;-67
2021/12/03 08:29:26;;;;;;;;;5.75;2.00;;;;;4.80;66.15;101074.09;4971598;28;45957;-67
2021/12/03 08:31:51;;;;;;;;;2.00;2.00;;;;;4.82;66.39;101072.47;4970346;28;45435;-67
2021/12/03 08:34:16;;;;;;;;;2.00;2.00;;;;;4.85;66.10;101070.91;4958222;28;45423;-66
2021/12/03 08:36:42;;;;;;;;;5.50;2.00;;;;;4.88;65.96;101075.41;4960586;28;45441;-67
2021/12/03 08:39:08;;;;;;;;;4.75;2.00;;;;;4.89;65.75;101069.31;4966534;28;45484;-67
2021/12/03 08:41:34;;;;;;;;;2.00;2.00;;;;;4.97;66.00;101077.59;4964794;28;45463;-67
2021/12/03 08:44:00;;;;;;;;;5.50;3.00;;;;;5.01;65.61;101085.66;4960748;28;45370;-67
2021/12/03 08:46:35;;;;;;;;;5.00;5.00;;;;;5.01;66.08;101080.41;4982914;28;45226;-68
2021/12/03 08:49:26;;;;;;;;;4.00;2.00;;;;;5.05;66.06;101084.13;4960762;28;45311;-67
2021/12/03 08:52:09;;;;;;;;;3.00;2.00;;;;;5.00;64.69;101081.25;4960414;28;45617;-68
2021/12/03 08:54:49;;;;;;;;;3.00;3.00;;;;;5.03;65.05;101084.03;4977594;28;45308;-67
2021/12/03 08:57:16;;;;;;;;;3.00;2.00;;;;;5.01;65.43;101080.41;4967109;28;45276;-67
2021/12/03 08:59:41;;;;;;;;;3.00;3.00;;;;;4.98;64.32;101076.75;4958474;28;45394;-67
2021/12/03 09:02:07;;;;;;;;;5.75;5.50;;;;;5.03;65.50;101072.66;4972981;28;46984;-67
2021/12/03 09:04:32;;;;;;;;;3.25;2.00;;;;;5.08;64.84;101081.66;4965198;28;45295;-67
2021/12/03 09:06:58;;;;;;;;;6.00;3.00;;;;;5.04;65.80;101072.75;4960355;28;45510;-67
2021/12/03 09:09:24;;;;;;;;;2.00;2.00;;;;;5.03;64.98;101073.53;4982410;28;45371;-67
2021/12/03 09:11:50;;;;;;;;;5.00;5.00;;;;;5.03;66.14;101078.78;4960109;28;45371;-67
2021/12/03 09:14:22;;;;;;;;;5.00;3.00;;;;;5.04;65.00;101072.75;4971733;28;45395;-67
2021/12/03 09:16:54;;;;;;;;;5.00;5.00;;;;;5.04;65.44;101059.66;4959200;28;45465;-67
2021/12/03 09:19:28;;;;;;;;;5.00;5.00;;;;;5.12;65.52;101063.53;4958023;28;45389;-67
2021/12/03 09:21:53;;;;;;;;;5.50;5.50;;;;;5.10;65.99;101059.94;4972883;28;46163;-67
2021/12/03 09:24:25;;;;;;;;;4.00;4.00;;;;;5.13;65.42;101067.97;4957691;28;45451;-67
2021/12/03 09:26:51;;;;;;;;;4.50;4.50;;;;;5.03;65.26;101054.31;4959676;28;45441;-67
2021/12/03 09:29:23;;;;;;;;;6.00;5.00;;;;;5.03;65.78;101042.09;4976933;28;45472;-67
2021/12/03 09:31:50;;;;;;;;;8.00;5.75;;;;;5.09;66.26;101050.28;4969229;28;48298;-67
2021/12/03 09:34:17;;;;;;;;;4.50;4.50;;;;;5.04;66.08;101038.69;4966408;28;45308;-67
2021/12/03 09:36:43;;;;;;;;;5.50;5.00;;;;;5.04;66.86;101043.94;4960480;28;45295;-67
2021/12/03 09:39:16;;;;;;;;;4.00;4.00;;;;;5.00;66.74;101028.84;4964843;28;47405;-67
2021/12/03 09:41:41;;;;;;;;;5.00;5.00;;;;;5.00;67.01;101030.59;4965192;28;45355;-67
2021/12/03 09:44:07;;;;;;;;;6.25;3.50;;;;;5.01;67.38;101024.50;4961426;28;45477;-67
2021/12/03 09:46:32;;;;;;;;;3.00;3.00;;;;;5.05;67.13;101037.84;4983951;28;45782;-67
2021/12/03 09:51:33;;;;;;;;;6.25;5.25;;;;;5.07;67.12;101014.34;4959962;28;46132;-66
2021/12/03 09:56:43;;;;;;;;;6.50;6.00;;;;;5.02;67.34;101031.56;4961207;28;45319;-66
2021/12/03 10:01:55;;;;;;;;;6.25;6.00;;;;;5.00;68.20;101022.72;4959834;28;45418;-67
2021/12/03 10:18:00;;;;;;;;;6.00;6.00;;;;;4.83;70.22;101003.53;4969111;28;45150;-68
2021/12/03 10:34:26;;;;;;;;;5.75;5.75;;;;;4.83;70.77;100977.34;4965367;28;45861;-67
2021/12/03 10:37:07;;;;;;;;;5.50;5.50;;;;;4.79;71.09;100967.53;4959386;28;45320;-69
2021/12/03 10:39:49;;;;;;;;;3.00;3.00;;;;;4.77;71.68;100957.00;4961589;28;44792;-68
2021/12/03 11:14:48;;;;;;;;;5.00;5.00;;;;;4.54;72.75;100907.81;4967730;28;45276;-69
2021/12/03 12:14:10;;;;;;;;;4.25;2.50;;;;;4.43;75.72;100764.25;4959355;28;45249;-68
2021/12/03 12:20:32;;;;;;;;;3.00;2.00;;;;;4.33;75.51;100748.91;4958161;28;45355;-68
2021/12/03 12:32:24;;;;;;;;;3.00;3.00;;;;;4.25;75.60;100730.22;4966664;28;45383;-68
2021/12/03 13:12:30;;;;;;;;;1.50;1.50;;;;;4.40;75.65;100693.44;4958969;28;45400;-68
2021/12/03 13:29:53;;;;;;;;;2.00;2.00;;;;;4.43;76.61;100641.25;4966685;28;45711;-68
2021/12/03 13:57:45;;;;;;;;;5.75;5.00;;;;;4.57;76.49;100606.97;4960149;28;45537;-68
2021/12/03 14:40:37;;;;;;;;;6.50;3.00;;;;;4.86;76.92;100537.53;4960421;28;45349;-68
2021/12/03 14:45:47;;;;;;;;;4.00;4.00;;;;;4.80;77.21;100519.84;4968473;28;45432;-68
2021/12/03 14:49:08;;;;;;;;;6.25;2.25;;;;;4.85;76.59;100520.94;4959635;28;45402;-68
2021/12/03 14:56:16;;;;;;;;;5.25;4.00;;;;;4.91;76.36;100501.97;4959659;28;45476;-68
2021/12/03 14:58:51;;;;;;;;;2.75;2.75;;;;;4.91;77.26;100496.72;4970725;28;45334;-68
2021/12/03 15:01:31;;;;;;;;;7.25;6.25;;;;;4.99;76.93;100499.69;4977365;28;45293;-68
2021/12/03 15:09:38;;;;;;;;;2.00;2.00;;;;;5.03;76.54;100494.59;4961558;28;45419;-68
2021/12/03 15:35:57;;;;;;;;;7.00;5.00;;;;;5.13;77.91;100465.34;4959234;28;45182;-69
2021/12/03 15:57:41;;;;;;;;;5.25;5.25;;;;;5.28;77.25;100427.50;4961236;28;45238;-68
2021/12/03 16:05:57;;;;;;;;;6.00;6.00;;;;;5.32;77.16;100422.44;4959020;28;45446;-68
2021/12/03 16:08:26;;;;;;;;;3.00;2.00;;;;;5.33;76.35;100421.59;4967362;28;45667;-67
2021/12/03 16:11:11;;;;;;;;;5.25;5.00;;;;;5.34;77.12;100410.28;4967722;28;47445;-69
2021/12/03 16:13:52;;;;;;;;;5.00;3.00;;;;;5.40;77.30;100404.38;4969107;28;45529;-68
2021/12/03 16:27:06;;;;;;;;;5.25;5.25;;;;;5.35;77.06;100359.66;4961201;28;46111;-68
2021/12/03 16:46:15;;;;;;;;;10.75;8.00;;;;;5.35;77.14;100330.84;4968677;28;45394;-68
2021/12/03 16:54:26;;;;;;;;;4.50;4.50;;;;;5.45;77.53;100316.34;4958339;28;46400;-68
2021/12/03 16:56:53;;;;;;;;;1.75;1.75;;;;;5.45;76.58;100313.72;4959831;28;45427;-68
2021/12/03 16:59:20;;;;;;;;;5.25;5.25;;;;;5.47;77.65;100309.44;4957686;28;45289;-68
2021/12/03 17:01:52;;;;;;;;;10.00;7.00;;;;;5.48;77.42;100300.72;4958047;28;45286;-68
2021/12/03 17:09:57;;;;;;;;;11.25;10.75;;;;;5.41;77.29;100266.38;4966085;28;45339;-68
2021/12/03 17:45:06;;;;;;;;;10.25;10.25;;;;;5.70;79.71;100263.06;4957148;28;45269;-69
2021/12/03 17:52:15;;;;;;;;;18.00;14.75;;;;;5.68;81.10;100249.00;4959194;28;45477;-69
2021/12/03 17:55:08;;;;;;;;;15.00;10.25;;;;;5.71;80.77;100241.22;4967438;28;46231;-69
2021/12/03 18:00:16;;;;;;;;;21.75;16.50;;;;;5.76;81.29;100212.56;4960087;28;45364;-68
2021/12/03 18:02:45;;;;;;;;;26.00;23.25;;;;;5.80;79.98;100212.72;4965459;28;45269;-68
2021/12/03 18:07:59;;;;;;;;;13.50;13.50;;;;;5.77;78.98;100199.50;4971960;28;45345;-69
2021/12/03 18:14:18;;;;;;;;;79.33;59.00;;;;;5.88;77.98;100196.34;4960657;28;45541;-69